Time;durP1;ratioP1;P1;durP2;ratioP2;P2;SDS_P1;SDS_P2;PMS_P1;PMS_P2;Temp;Humidity;BMP_temperature;BMP_pressure;BME280_temperature;BME280_humidity;BME280_pressure;Samples;Min_cycle;Max_cycle;Signal;HPM_P1;HPM_P2
2022/04/07 00:00:20;;;;;;;1.30;0.93;;;12.40;99.90;;;;;;7390689;19;20143;-80
2022/04/07 00:02:46;;;;;;;1.03;0.70;;;12.30;99.90;;;;;;7389504;19;20190;-78
2022/04/07 00:05:12;;;;;;;1.17;0.93;;;12.30;99.90;;;;;;7389869;19;20154;-79
2022/04/07 00:07:38;;;;;;;1.07;0.67;;;12.30;99.90;;;;;;7391814;19;20141;-79
2022/04/07 00:10:04;;;;;;;1.23;0.60;;;12.30;99.90;;;;;;7389005;19;20130;-81
2022/04/07 00:12:33;;;;;;;3.90;0.70;;;12.30;99.90;;;;;;7388918;19;20153;-80
2022/04/07 00:15:00;;;;;;;3.43;0.70;;;12.40;99.90;;;;;;7390564;19;20146;-81
2022/04/07 00:17:27;;;;;;;1.13;0.80;;;12.40;99.90;;;;;;7388672;19;20176;-80
2022/04/07 00:19:53;;;;;;;4.50;1.00;;;12.40;99.90;;;;;;7391221;19;20476;-80
2022/04/07 00:22:19;;;;;;;2.63;1.20;;;12.30;99.90;;;;;;7389783;19;20134;-80
2022/04/07 00:24:45;;;;;;;0.70;0.70;;;12.30;99.90;;;;;;7389421;19;20141;-80
2022/04/07 00:27:10;;;;;;;0.60;0.60;;;12.20;99.90;;;;;;7388164;19;20487;-79
2022/04/07 00:29:36;;;;;;;0.60;0.60;;;12.30;99.90;;;;;;7394528;19;20170;-79
2022/04/07 00:32:05;;;;;;;3.00;0.90;;;12.40;99.90;;;;;;7389468;19;20122;-79
2022/04/07 00:34:32;;;;;;;0.70;0.60;;;12.20;99.90;;;;;;7391111;19;20130;-79
2022/04/07 00:36:58;;;;;;;0.93;0.77;;;12.20;99.90;;;;;;7386893;19;20135;-80
2022/04/07 00:39:24;;;;;;;0.50;0.50;;;12.10;99.90;;;;;;7387230;19;20154;-78
2022/04/07 00:41:50;;;;;;;2.33;0.80;;;12.30;99.90;;;;;;7390617;19;20138;-79
2022/04/07 00:44:16;;;;;;;1.03;0.70;;;12.20;99.90;;;;;;7391507;19;20507;-80
2022/04/07 00:46:42;;;;;;;3.43;1.20;;;12.20;99.90;;;;;;7383835;19;20154;-80
2022/04/07 00:49:09;;;;;;;2.83;0.93;;;12.50;99.90;;;;;;7389480;19;20577;-80
2022/04/07 00:51:39;;;;;;;1.90;0.53;;;12.40;99.90;;;;;;7391846;19;20496;-80
2022/04/07 00:54:06;;;;;;;0.77;0.60;;;12.40;99.90;;;;;;7386026;19;20142;-80
2022/04/07 00:56:37;;;;;;;1.77;1.67;;;12.40;99.90;;;;;;7384923;19;20167;-80
2022/04/07 00:59:07;;;;;;;2.00;0.80;;;12.40;99.90;;;;;;7384791;19;20130;-80
2022/04/07 01:01:32;;;;;;;2.93;0.60;;;12.30;99.90;;;;;;7384936;19;20629;-80
2022/04/07 01:03:59;;;;;;;0.87;0.43;;;12.30;99.90;;;;;;7385792;19;20146;-80
2022/04/07 01:06:25;;;;;;;2.27;0.70;;;12.40;99.90;;;;;;7386562;19;20135;-81
2022/04/07 01:08:51;;;;;;;0.53;0.50;;;12.30;99.90;;;;;;7386008;19;20162;-81
2022/04/07 01:11:18;;;;;;;0.77;0.50;;;12.30;99.90;;;;;;7386062;19;20153;-79
2022/04/07 01:13:49;;;;;;;0.43;0.40;;;12.20;99.90;;;;;;7393240;19;20150;-79
2022/04/07 01:16:16;;;;;;;1.43;0.50;;;12.30;99.90;;;;;;7389691;19;20166;-79
2022/04/07 01:18:44;;;;;;;1.90;0.70;;;12.10;99.90;;;;;;7387641;19;20156;-79
2022/04/07 01:21:11;;;;;;;1.00;0.40;;;12.20;99.90;;;;;;7388622;19;20131;-81
2022/04/07 01:23:39;;;;;;;0.73;0.50;;;12.20;99.90;;;;;;7390387;19;20123;-79
2022/04/07 01:26:08;;;;;;;2.20;0.60;;;12.20;99.90;;;;;;7386255;19;20135;-80
2022/04/07 01:28:34;;;;;;;0.80;0.50;;;12.00;99.90;;;;;;7385620;19;20150;-78
2022/04/07 01:31:01;;;;;;;0.40;0.40;;;11.90;99.90;;;;;;7387061;19;20131;-79
2022/04/07 01:33:28;;;;;;;0.50;0.50;;;11.90;99.90;;;;;;7393139;19;20578;-79
2022/04/07 01:35:54;;;;;;;0.83;0.60;;;11.90;99.90;;;;;;7395842;19;20703;-79
2022/04/07 01:38:20;;;;;;;0.53;0.47;;;11.80;99.90;;;;;;7242476;19;2824912;-79
2022/04/07 01:40:47;;;;;;;0.60;0.50;;;11.70;99.90;;;;;;7390927;19;20189;-79
2022/04/07 01:43:15;;;;;;;0.43;0.40;;;11.80;99.90;;;;;;7391533;19;20606;-81
2022/04/07 01:45:42;;;;;;;0.90;0.57;;;11.70;99.90;;;;;;7390021;19;20266;-79
2022/04/07 01:48:09;;;;;;;1.00;0.50;;;11.60;99.90;;;;;;7388123;19;20602;-80
2022/04/07 01:50:38;;;;;;;1.27;0.70;;;11.60;99.90;;;;;;7387926;19;20222;-80
2022/04/07 01:53:04;;;;;;;1.60;0.70;;;11.60;99.90;;;;;;7388468;19;20473;-79
2022/04/07 01:55:31;;;;;;;3.63;0.70;;;11.60;99.90;;;;;;7387914;19;20687;-80
2022/04/07 01:57:57;;;;;;;3.40;0.90;;;11.50;99.90;;;;;;7387259;19;20138;-80
2022/04/07 02:00:23;;;;;;;2.77;0.80;;;11.70;99.90;;;;;;7391749;19;20146;-80
2022/04/07 02:02:49;;;;;;;2.87;0.87;;;11.70;99.90;;;;;;7388751;19;20512;-80
2022/04/07 02:05:15;;;;;;;3.10;0.97;;;11.80;99.90;;;;;;7389749;19;20131;-81
2022/04/07 02:07:43;;;;;;;4.20;1.00;;;12.00;99.90;;;;;;7387310;19;20178;-80
2022/04/07 02:10:11;;;;;;;2.70;1.30;;;12.00;99.90;;;;;;7388278;19;20139;-81
2022/04/07 02:12:40;;;;;;;3.40;0.97;;;12.10;99.90;;;;;;7388397;19;20149;-79
2022/04/07 02:15:07;;;;;;;2.30;0.70;;;12.00;99.90;;;;;;7389597;19;20626;-80
2022/04/07 02:17:33;;;;;;;1.40;0.77;;;11.70;99.90;;;;;;7396872;19;20129;-79
2022/04/07 02:20:00;;;;;;;2.27;0.87;;;11.60;99.90;;;;;;7393542;19;20147;-78
2022/04/07 02:22:29;;;;;;;4.47;0.70;;;11.50;99.90;;;;;;7390410;19;20141;-79
2022/04/07 02:24:56;;;;;;;1.23;0.70;;;11.60;99.90;;;;;;7392209;19;20129;-80
2022/04/07 02:27:22;;;;;;;1.37;0.73;;;11.40;99.90;;;;;;7386357;19;20134;-80
2022/04/07 02:29:48;;;;;;;0.70;0.60;;;11.40;99.90;;;;;;7386097;19;20143;-80
2022/04/07 02:32:14;;;;;;;0.50;0.50;;;11.30;99.90;;;;;;7387235;19;20605;-79
2022/04/07 02:34:41;;;;;;;0.73;0.50;;;11.40;99.90;;;;;;7385763;19;20155;-80
2022/04/07 02:37:08;;;;;;;0.70;0.50;;;11.50;99.90;;;;;;7388263;19;20135;-79
2022/04/07 02:39:34;;;;;;;0.60;0.60;;;11.40;99.90;;;;;;7389273;19;20545;-80
2022/04/07 02:42:00;;;;;;;1.47;0.67;;;11.30;99.90;;;;;;7390826;19;20139;-79
2022/04/07 02:44:26;;;;;;;0.97;0.60;;;11.30;99.90;;;;;;7387547;19;20147;-79
2022/04/07 02:46:51;;;;;;;0.70;0.50;;;11.40;99.90;;;;;;7388019;19;20131;-79
2022/04/07 02:49:17;;;;;;;1.13;0.73;;;11.50;99.90;;;;;;7388213;19;20134;-79
2022/04/07 02:51:44;;;;;;;0.50;0.50;;;11.50;99.90;;;;;;7383533;19;20174;-80
2022/04/07 02:54:10;;;;;;;1.27;0.60;;;11.40;99.90;;;;;;7384331;19;20186;-79
2022/04/07 02:56:37;;;;;;;2.50;1.00;;;11.60;99.90;;;;;;7387588;19;20146;-80
2022/04/07 02:59:03;;;;;;;1.33;0.90;;;11.60;99.90;;;;;;7384898;19;20586;-80
2022/04/07 03:01:29;;;;;;;5.13;1.60;;;11.60;99.90;;;;;;7385983;19;20152;-80
2022/04/07 03:03:55;;;;;;;2.40;0.83;;;11.60;99.90;;;;;;7389018;19;20134;-80
2022/04/07 03:06:25;;;;;;;2.67;0.60;;;11.60;99.90;;;;;;7396660;19;20122;-79
2022/04/07 03:08:51;;;;;;;4.83;1.13;;;11.60;99.90;;;;;;7384602;19;20135;-79
2022/04/07 03:11:17;;;;;;;3.83;1.20;;;11.80;99.90;;;;;;7387921;19;20160;-80
2022/04/07 03:13:43;;;;;;;7.80;1.70;;;11.80;99.90;;;;;;7391222;19;20158;-80
2022/04/07 03:16:09;;;;;;;5.37;2.20;;;11.80;99.90;;;;;;7396344;19;20139;-79
2022/04/07 03:18:35;;;;;;;4.73;1.20;;;11.50;99.90;;;;;;7392133;19;20126;-79
2022/04/07 03:21:01;;;;;;;7.30;1.60;;;11.40;99.90;;;;;;7391188;19;20135;-79
2022/04/07 03:23:27;;;;;;;4.20;1.77;;;11.40;99.90;;;;;;7391124;19;20146;-78
2022/04/07 03:25:53;;;;;;;2.53;0.90;;;11.60;99.90;;;;;;7389597;19;20142;-79
2022/04/07 03:28:19;;;;;;;4.97;0.90;;;11.40;99.90;;;;;;7389711;19;20170;-80
2022/04/07 03:30:44;;;;;;;0.87;0.50;;;11.40;99.90;;;;;;7401051;19;20130;-79
2022/04/07 03:33:10;;;;;;;0.87;0.60;;;11.20;99.90;;;;;;7399008;19;20131;-79
2022/04/07 03:35:36;;;;;;;1.40;0.50;;;11.30;99.90;;;;;;7391650;19;20665;-79
2022/04/07 03:38:03;;;;;;;1.47;0.50;;;11.50;99.90;;;;;;7389992;19;20154;-79
2022/04/07 03:40:29;;;;;;;0.37;0.37;;;11.60;99.90;;;;;;7392755;19;20149;-79
2022/04/07 03:42:55;;;;;;;0.40;0.40;;;11.50;99.90;;;;;;7389887;19;20622;-79
2022/04/07 03:45:21;;;;;;;3.37;0.97;;;11.50;99.90;;;;;;7389061;19;20130;-78
2022/04/07 03:47:46;;;;;;;7.97;0.80;;;11.50;99.90;;;;;;7393672;19;20613;-80
2022/04/07 03:50:12;;;;;;;2.80;1.20;;;11.60;99.90;;;;;;7389495;19;20135;-79
2022/04/07 03:52:38;;;;;;;5.77;1.40;;;11.50;99.90;;;;;;7390738;19;20222;-79
2022/04/07 03:55:05;;;;;;;6.17;1.30;;;11.30;99.90;;;;;;7395927;19;20150;-80
2022/04/07 03:57:31;;;;;;;3.97;1.30;;;11.40;99.90;;;;;;7389909;19;20142;-79
2022/04/07 03:59:57;;;;;;;4.53;1.10;;;11.40;99.90;;;;;;7389334;19;20137;-80
2022/04/07 04:02:23;;;;;;;2.23;0.90;;;11.50;99.90;;;;;;7389302;19;20179;-79
2022/04/07 04:04:48;;;;;;;4.47;1.20;;;11.60;99.90;;;;;;7391482;19;20840;-80
2022/04/07 04:07:14;;;;;;;2.53;0.90;;;11.70;99.90;;;;;;7388434;19;20131;-81
2022/04/07 04:09:40;;;;;;;1.17;0.63;;;11.60;99.90;;;;;;7389025;19;20146;-79
2022/04/07 04:12:07;;;;;;;3.13;0.80;;;11.60;99.90;;;;;;7389937;19;20151;-80
2022/04/07 04:14:32;;;;;;;1.37;0.60;;;11.40;99.90;;;;;;7398422;19;20137;-81
2022/04/07 04:16:58;;;;;;;0.77;0.60;;;11.50;99.90;;;;;;7395438;19;20593;-81
2022/04/07 04:19:25;;;;;;;0.70;0.60;;;11.60;99.90;;;;;;7393473;19;20135;-79
2022/04/07 04:21:51;;;;;;;2.43;0.30;;;11.20;99.90;;;;;;7390981;19;20158;-80
2022/04/07 04:24:17;;;;;;;1.63;0.60;;;11.30;99.90;;;;;;7391561;19;20143;-80
2022/04/07 04:26:43;;;;;;;0.80;0.60;;;11.40;99.90;;;;;;7392012;19;20139;-81
2022/04/07 04:29:09;;;;;;;2.23;0.60;;;11.40;99.90;;;;;;7391678;19;20146;-78
2022/04/07 04:31:35;;;;;;;1.80;0.80;;;11.40;99.90;;;;;;7393862;19;20146;-80
2022/04/07 04:34:01;;;;;;;3.63;0.80;;;11.60;99.90;;;;;;7398643;19;20141;-81
2022/04/07 04:36:28;;;;;;;0.97;0.40;;;11.60;99.90;;;;;;7393220;19;20130;-80
2022/04/07 04:38:54;;;;;;;2.77;0.80;;;11.60;99.90;;;;;;7387655;19;20143;-80
2022/04/07 04:41:20;;;;;;;1.87;0.60;;;11.40;99.90;;;;;;7394279;19;20166;-79
2022/04/07 04:43:46;;;;;;;2.47;0.73;;;11.50;99.90;;;;;;7392381;19;20509;-81
2022/04/07 04:46:12;;;;;;;1.10;0.63;;;11.30;99.90;;;;;;7392055;19;20154;-81
2022/04/07 04:48:38;;;;;;;0.83;0.50;;;11.40;99.90;;;;;;7391899;19;20194;-78
2022/04/07 04:51:08;;;;;;;2.20;1.03;;;11.40;99.90;;;;;;7391458;19;20151;-78
2022/04/07 04:53:34;;;;;;;0.93;0.53;;;11.30;99.90;;;;;;7401267;19;20142;-78
2022/04/07 04:56:00;;;;;;;0.90;0.50;;;11.50;99.90;;;;;;7391395;19;20633;-80
2022/04/07 04:58:26;;;;;;;1.43;0.87;;;11.60;99.90;;;;;;7390986;19;20158;-80
2022/04/07 05:00:52;;;;;;;0.93;0.70;;;11.50;99.90;;;;;;7392852;19;20147;-81
2022/04/07 05:03:18;;;;;;;2.10;0.63;;;11.60;99.90;;;;;;7391404;19;20511;-80
2022/04/07 05:05:44;;;;;;;2.67;1.13;;;11.70;99.90;;;;;;7391768;19;20218;-80
2022/04/07 05:08:10;;;;;;;4.33;0.80;;;11.60;99.90;;;;;;7389112;19;20142;-81
2022/04/07 05:10:40;;;;;;;2.03;0.57;;;11.50;99.90;;;;;;7393324;19;20153;-81
2022/04/07 05:13:06;;;;;;;2.57;1.00;;;11.40;99.90;;;;;;7391883;19;20499;-81
2022/04/07 05:15:32;;;;;;;1.73;0.70;;;11.50;99.90;;;;;;7395629;19;20712;-82
2022/04/07 05:17:58;;;;;;;2.33;0.93;;;11.40;99.90;;;;;;7389285;19;20206;-82
2022/04/07 05:20:24;;;;;;;2.53;0.70;;;11.50;99.90;;;;;;7388567;19;20162;-79
2022/04/07 05:22:50;;;;;;;1.87;0.70;;;11.50;99.90;;;;;;7388880;19;20134;-78
2022/04/07 05:25:16;;;;;;;3.77;1.20;;;11.60;99.90;;;;;;7389863;19;20190;-81
2022/04/07 05:27:45;;;;;;;5.83;1.10;;;11.50;99.90;;;;;;7386819;19;20130;-79
2022/04/07 05:30:18;;;;;;;4.03;1.10;;;11.50;99.90;;;;;;7392214;19;20219;-80
2022/04/07 05:32:44;;;;;;;1.77;0.80;;;11.70;99.90;;;;;;7393044;19;20484;-82
2022/04/07 05:35:11;;;;;;;6.47;0.83;;;11.60;99.90;;;;;;7394181;19;20146;-81
2022/04/07 05:37:37;;;;;;;2.90;1.20;;;11.50;99.90;;;;;;7401143;19;20134;-79
2022/04/07 05:40:04;;;;;;;1.67;0.67;;;11.60;99.90;;;;;;7391284;19;20162;-79
2022/04/07 05:42:31;;;;;;;2.83;0.80;;;11.70;99.90;;;;;;7393894;19;20139;-77
2022/04/07 05:44:57;;;;;;;1.03;0.53;;;11.80;99.90;;;;;;7393680;19;20138;-78
2022/04/07 05:47:23;;;;;;;2.07;0.87;;;11.90;99.90;;;;;;7393290;19;20153;-77
2022/04/07 05:49:49;;;;;;;2.87;0.70;;;11.90;99.90;;;;;;7392206;19;20162;-78
2022/04/07 05:52:14;;;;;;;1.00;0.73;;;11.80;99.90;;;;;;7392150;19;20162;-78
2022/04/07 05:54:40;;;;;;;0.90;0.50;;;11.70;99.90;;;;;;7392110;19;20602;-78
2022/04/07 05:57:08;;;;;;;1.37;0.60;;;11.60;99.90;;;;;;7394583;19;20142;-80
2022/04/07 05:59:34;;;;;;;0.90;0.47;;;11.70;99.90;;;;;;7394711;19;20146;-78
2022/04/07 06:02:00;;;;;;;7.73;1.00;;;12.00;99.90;;;;;;7404487;19;20157;-78
2022/04/07 06:04:26;;;;;;;1.10;0.53;;;12.10;99.90;;;;;;7390702;19;20167;-80
2022/04/07 06:06:51;;;;;;;1.83;0.90;;;12.00;99.90;;;;;;7388487;19;20142;-79
2022/04/07 06:09:17;;;;;;;0.43;0.40;;;12.00;99.90;;;;;;7389010;19;20609;-77
2022/04/07 06:11:43;;;;;;;1.57;0.50;;;11.90;99.90;;;;;;7390718;19;20135;-79
2022/04/07 06:14:09;;;;;;;3.70;0.50;;;12.20;99.90;;;;;;7387912;19;20168;-79
2022/04/07 06:16:34;;;;;;;1.33;0.30;;;12.20;99.90;;;;;;7391937;19;20164;-78
2022/04/07 06:19:00;;;;;;;1.03;0.40;;;12.10;99.90;;;;;;7390777;19;20151;-79
2022/04/07 06:21:29;;;;;;;4.83;0.60;;;12.20;99.90;;;;;;7393705;19;20146;-81
2022/04/07 06:23:57;;;;;;;1.97;0.50;;;12.00;99.90;;;;;;7395072;19;20139;-78
2022/04/07 06:26:23;;;;;;;1.37;0.77;;;12.20;99.90;;;;;;7391898;19;20132;-79
2022/04/07 06:28:49;;;;;;;1.97;0.50;;;12.40;99.90;;;;;;7387063;19;20608;-80
2022/04/07 06:31:15;;;;;;;0.87;0.50;;;12.40;99.90;;;;;;7388191;19;20130;-79
2022/04/07 06:33:41;;;;;;;1.03;0.70;;;12.40;99.90;;;;;;7385717;19;20210;-80
2022/04/07 06:36:07;;;;;;;2.33;0.63;;;12.40;99.90;;;;;;7387955;19;20158;-79
2022/04/07 06:38:34;;;;;;;5.30;0.60;;;12.10;99.90;;;;;;7390593;19;20151;-80
2022/04/07 06:41:00;;;;;;;5.07;0.50;;;12.20;99.90;;;;;;7390087;19;20194;-79
2022/04/07 06:43:27;;;;;;;4.13;0.50;;;12.20;99.90;;;;;;7386488;19;20153;-78
2022/04/07 06:45:53;;;;;;;0.83;0.80;;;12.30;99.90;;;;;;7393753;19;20626;-79
2022/04/07 06:48:19;;;;;;;0.67;0.50;;;12.40;99.90;;;;;;7406307;19;20173;-79
2022/04/07 06:50:45;;;;;;;1.00;0.80;;;12.40;99.90;;;;;;7394961;19;20226;-79
2022/04/07 06:53:12;;;;;;;0.50;0.33;;;12.40;99.90;;;;;;7394567;19;20131;-79
2022/04/07 06:55:41;;;;;;;0.60;0.40;;;12.40;99.90;;;;;;7394709;19;20601;-79
2022/04/07 06:58:12;;;;;;;0.40;0.30;;;12.20;99.90;;;;;;7395944;19;20141;-80
2022/04/07 07:00:45;;;;;;;0.27;0.20;;;12.30;99.90;;;;;;7393014;19;20142;-81
2022/04/07 07:03:14;;;;;;;0.43;0.40;;;12.30;99.90;;;;;;7394379;19;20217;-80
2022/04/07 07:05:40;;;;;;;1.83;0.40;;;12.40;99.90;;;;;;7398569;19;20148;-79
2022/04/07 07:08:25;;;;;;;1.43;1.00;;;12.30;99.90;;;;;;7402141;19;20170;-79
2022/04/07 07:10:51;;;;;;;2.57;1.43;;;12.20;99.90;;;;;;7392270;19;20206;-78
2022/04/07 07:13:22;;;;;;;3.43;1.30;;;12.30;99.90;;;;;;7392926;19;20626;-80
2022/04/07 07:15:49;;;;;;;3.77;0.70;;;12.40;99.90;;;;;;7397312;19;20161;-80
2022/04/07 07:18:15;;;;;;;1.53;0.40;;;12.60;99.90;;;;;;7392827;19;20515;-83
2022/04/07 07:20:42;;;;;;;1.70;0.47;;;12.60;99.90;;;;;;7394855;19;20146;-79
2022/04/07 07:23:08;;;;;;;2.00;0.43;;;12.60;99.90;;;;;;7393659;19;20158;-81
2022/04/07 07:25:37;;;;;;;0.57;0.40;;;12.50;99.90;;;;;;7397277;19;20142;-79
2022/04/07 07:28:04;;;;;;;0.33;0.20;;;12.40;99.90;;;;;;7394425;19;20171;-79
2022/04/07 07:30:30;;;;;;;4.97;0.60;;;12.60;99.90;;;;;;7394128;19;20127;-80
2022/04/07 07:32:56;;;;;;;0.50;0.43;;;12.60;99.90;;;;;;7392644;19;20134;-79
2022/04/07 07:35:23;;;;;;;0.77;0.40;;;12.80;99.90;;;;;;7391816;19;20586;-79
2022/04/07 07:37:59;;;;;;;2.27;0.47;;;12.80;99.90;;;;;;7397978;19;20145;-79
2022/04/07 07:40:29;;;;;;;0.43;0.43;;;12.90;99.90;;;;;;7395998;19;20169;-80
2022/04/07 07:42:56;;;;;;;2.57;0.40;;;13.00;99.90;;;;;;7391841;19;20142;-80
2022/04/07 07:45:26;;;;;;;4.87;0.50;;;12.90;99.90;;;;;;7393902;19;20138;-80
2022/04/07 07:47:54;;;;;;;1.37;0.50;;;13.10;99.90;;;;;;7391299;19;20485;-81
2022/04/07 07:50:21;;;;;;;0.30;0.30;;;13.10;99.90;;;;;;7395870;19;20146;-78
2022/04/07 07:52:47;;;;;;;2.07;0.43;;;13.20;99.90;;;;;;7392750;19;20606;-78
2022/04/07 07:55:13;;;;;;;0.70;0.40;;;13.20;99.90;;;;;;7389207;19;20127;-79
2022/04/07 07:57:39;;;;;;;0.43;0.43;;;13.20;99.90;;;;;;7388571;19;20131;-78
2022/04/07 08:00:07;;;;;;;1.17;0.57;;;13.30;99.90;;;;;;7389060;19;20458;-80
2022/04/07 08:02:34;;;;;;;0.83;0.37;;;13.40;99.90;;;;;;7391526;19;20131;-79
2022/04/07 08:05:01;;;;;;;2.10;0.40;;;13.30;99.90;;;;;;7392213;19;20131;-79
2022/04/07 08:07:27;;;;;;;0.67;0.50;;;13.30;99.90;;;;;;7388780;19;20158;-79
2022/04/07 08:09:57;;;;;;;0.57;0.33;;;13.30;99.90;;;;;;7393605;19;20202;-79
2022/04/07 08:12:26;;;;;;;2.17;0.57;;;13.40;99.90;;;;;;7398861;19;20137;-79
2022/04/07 08:14:53;;;;;;;1.23;0.63;;;13.30;99.90;;;;;;7397250;19;20213;-80
2022/04/07 08:17:22;;;;;;;2.50;0.70;;;13.20;99.90;;;;;;7390319;19;20182;-79
2022/04/07 08:19:48;;;;;;;0.65;0.50;;;13.30;99.90;;;;;;7392982;19;20230;-79
2022/04/07 08:22:14;;;;;;;0.60;0.50;;;13.30;99.90;;;;;;7389849;19;20540;-78
2022/04/07 08:24:41;;;;;;;1.53;0.40;;;13.40;99.90;;;;;;7390093;19;20134;-79
2022/04/07 08:27:07;;;;;;;3.93;0.70;;;13.40;99.90;;;;;;7387396;19;20126;-79
2022/04/07 08:29:36;;;;;;;2.00;1.37;;;13.40;99.90;;;;;;7388752;19;20171;-77
2022/04/07 08:32:02;;;;;;;1.23;0.70;;;13.50;99.90;;;;;;7389999;19;20157;-79
2022/04/07 08:34:28;;;;;;;2.00;1.40;;;13.70;99.90;;;;;;7394888;19;20146;-77
2022/04/07 08:36:54;;;;;;;1.17;0.57;;;13.70;99.90;;;;;;7391242;19;20720;-79
2022/04/07 08:39:20;;;;;;;8.05;3.47;;;13.50;99.90;;;;;;7390326;19;20162;-79
2022/04/07 08:41:48;;;;;;;7.47;4.00;;;13.60;99.90;;;;;;7394152;19;20145;-79
2022/04/07 08:44:16;;;;;;;4.03;1.17;;;13.50;99.90;;;;;;7392230;19;20142;-79
2022/04/07 08:46:52;;;;;;;6.28;1.98;;;13.60;99.90;;;;;;7388201;19;20149;-78
2022/04/07 08:49:23;;;;;;;1.30;0.40;;;13.70;99.90;;;;;;7388948;19;20146;-80
2022/04/07 08:51:53;;;;;;;0.57;0.57;;;13.70;99.90;;;;;;7397608;19;20147;-79
2022/04/07 08:54:22;;;;;;;2.08;0.65;;;13.80;99.90;;;;;;7394792;19;20204;-79
2022/04/07 08:56:49;;;;;;;1.53;0.80;;;13.90;99.90;;;;;;7389267;19;20164;-81
2022/04/07 08:59:15;;;;;;;5.20;2.57;;;14.00;99.90;;;;;;7391524;19;20166;-80
2022/04/07 09:01:42;;;;;;;3.58;1.80;;;14.00;99.90;;;;;;7393353;19;20604;-78
2022/04/07 09:04:13;;;;;;;1.60;0.90;;;14.00;99.90;;;;;;7388363;19;20221;-78
2022/04/07 09:06:40;;;;;;;2.40;0.50;;;14.10;99.90;;;;;;7392891;19;20139;-78
2022/04/07 09:09:10;;;;;;;1.20;0.47;;;14.10;99.90;;;;;;7392278;19;20624;-79
2022/04/07 09:11:36;;;;;;;0.60;0.40;;;14.00;99.90;;;;;;7388264;19;20157;-78
2022/04/07 09:14:02;;;;;;;1.13;0.80;;;14.30;99.90;;;;;;7400824;19;20453;-79
2022/04/07 09:16:28;;;;;;;0.50;0.30;;;14.10;99.90;;;;;;7389255;19;20764;-80
2022/04/07 09:18:54;;;;;;;0.90;0.50;;;14.10;99.90;;;;;;7388410;19;20149;-79
2022/04/07 09:21:31;;;;;;;1.50;0.60;;;14.10;99.90;;;;;;7388138;19;20602;-80
2022/04/07 09:23:58;;;;;;;3.27;1.63;;;14.10;99.90;;;;;;7389325;19;20474;-79
2022/04/07 09:26:24;;;;;;;1.93;0.30;;;14.00;99.90;;;;;;7388304;19;20190;-80
2022/04/07 09:28:55;;;;;;;1.50;0.63;;;14.00;99.90;;;;;;7388487;19;20146;-81
2022/04/07 09:31:24;;;;;;;1.92;0.95;;;14.10;99.90;;;;;;7388447;19;20142;-81
2022/04/07 09:33:55;;;;;;;2.67;0.70;;;14.10;99.90;;;;;;7389271;19;20146;-80
2022/04/07 09:36:22;;;;;;;0.50;0.40;;;14.10;99.90;;;;;;7393546;19;20565;-81
2022/04/07 09:38:51;;;;;;;1.80;0.53;;;14.20;99.90;;;;;;7393265;19;20149;-80
2022/04/07 09:41:19;;;;;;;2.23;0.60;;;14.00;99.90;;;;;;7389115;19;20141;-79
2022/04/07 09:43:58;;;;;;;5.60;0.60;;;14.10;99.90;;;;;;7388106;19;20143;-81
2022/04/07 09:46:24;;;;;;;0.40;0.40;;;13.90;99.90;;;;;;7389701;19;20138;-82
2022/04/07 09:49:12;;;;;;;1.13;0.60;;;13.80;99.90;;;;;;7388357;19;20146;-82
2022/04/07 09:51:44;;;;;;;0.37;0.37;;;13.90;99.90;;;;;;7389410;19;20130;-80
2022/04/07 09:54:10;;;;;;;0.73;0.40;;;13.80;99.90;;;;;;7387856;19;20134;-79
2022/04/07 09:56:37;;;;;;;0.30;0.30;;;13.90;99.90;;;;;;7392089;19;20174;-81
2022/04/07 09:59:07;;;;;;;0.30;0.30;;;14.00;99.90;;;;;;7392523;19;20131;-81
2022/04/07 10:01:35;;;;;;;1.23;0.40;;;14.30;99.90;;;;;;7387050;19;20127;-79
2022/04/07 10:04:05;;;;;;;0.67;0.53;;;14.50;99.90;;;;;;7389052;19;20143;-80
2022/04/07 10:06:33;;;;;;;0.43;0.30;;;14.50;99.90;;;;;;7385947;19;20222;-80
2022/04/07 10:09:02;;;;;;;0.77;0.30;;;14.60;99.90;;;;;;7386198;19;20134;-80
2022/04/07 10:11:31;;;;;;;0.30;0.30;;;14.60;99.90;;;;;;7387716;19;20175;-79
2022/04/07 10:13:58;;;;;;;0.60;0.40;;;14.70;99.90;;;;;;7388494;19;20190;-81
2022/04/07 10:16:25;;;;;;;1.13;0.30;;;14.80;99.90;;;;;;7394106;19;20194;-80
2022/04/07 10:18:55;;;;;;;1.90;0.57;;;14.80;99.90;;;;;;7397287;19;20510;-79
2022/04/07 10:21:48;;;;;;;0.25;0.25;;;14.80;99.90;;;;;;7393695;19;20142;-83
2022/04/07 10:24:54;;;;;;;0.75;0.28;;;14.80;99.90;;;;;;7393754;19;20141;-81
2022/04/07 10:27:24;;;;;;;1.85;0.30;;;14.70;99.90;;;;;;7392476;19;20166;-80
2022/04/07 10:30:03;;;;;;;0.43;0.40;;;14.90;99.90;;;;;;7391270;19;20170;-82
2022/04/07 10:32:39;;;;;;;0.80;0.40;;;15.20;99.90;;;;;;7393220;19;20127;-80
2022/04/07 10:35:05;;;;;;;0.25;0.25;;;15.40;99.90;;;;;;7397829;19;20201;-79
2022/04/07 10:37:47;;;;;;;3.80;1.70;;;15.40;99.90;;;;;;7403631;19;20428;-78
2022/04/07 10:40:32;;;;;;;3.03;0.93;;;15.40;99.90;;;;;;7399967;19;20184;-79
2022/04/07 10:43:06;;;;;;;0.55;0.40;;;15.20;99.90;;;;;;7400095;19;20153;-81
2022/04/07 10:45:33;;;;;;;1.37;0.30;;;15.20;99.90;;;;;;7403406;19;20150;-80
2022/04/07 10:48:24;;;;;;;1.30;0.50;;;15.10;99.90;;;;;;7397279;19;20144;-80
2022/04/07 10:51:10;;;;;;;0.35;0.30;;;15.10;99.90;;;;;;7397978;19;20143;-82
2022/04/07 10:53:38;;;;;;;0.70;0.40;;;15.10;99.90;;;;;;7399792;19;20161;-84
2022/04/07 10:56:11;;;;;;;0.68;0.50;;;15.10;99.90;;;;;;7397190;19;20134;-78
2022/04/07 10:58:47;;;;;;;0.82;0.60;;;15.30;99.90;;;;;;7400808;19;20226;-83
2022/04/07 11:01:14;;;;;;;1.37;0.40;;;15.40;99.90;;;;;;7403103;19;20137;-79
2022/04/07 11:03:45;;;;;;;1.67;1.00;;;15.20;99.90;;;;;;7407721;19;20153;-79
2022/04/07 11:06:21;;;;;;;0.50;0.38;;;15.20;99.90;;;;;;7403680;19;20143;-81
2022/04/07 11:09:14;;;;;;;2.50;0.98;;;15.20;99.90;;;;;;7396949;19;20142;-81
2022/04/07 11:11:51;;;;;;;3.75;0.50;;;15.10;99.90;;;;;;7397018;19;20133;-77
2022/04/07 11:14:18;;;;;;;0.13;0.13;;;15.10;99.90;;;;;;7398586;19;20134;-84
2022/04/07 11:16:45;;;;;;;1.45;0.28;;;15.10;99.90;;;;;;7402265;19;20154;-83
2022/04/07 11:19:55;;;;;;;1.88;0.75;;;15.10;99.90;;;;;;7399558;19;20594;-82
2022/04/07 11:22:44;;;;;;;0.40;0.40;;;15.40;99.90;;;;;;7404826;19;20147;-85
2022/04/07 11:25:11;;;;;;;0.70;0.20;;;15.30;99.90;;;;;;7402587;19;20138;-81
2022/04/07 11:27:42;;;;;;;4.30;0.40;;;15.40;99.90;;;;;;7397603;19;20139;-84
2022/04/07 11:30:13;;;;;;;0.30;0.30;;;15.30;99.90;;;;;;7401945;19;20161;-86
2022/04/07 11:32:58;;;;;;;0.20;0.20;;;15.30;99.90;;;;;;7397370;19;20598;-82
2022/04/07 11:35:24;;;;;;;0.20;0.20;;;15.40;99.90;;;;;;7400016;19;20161;-80
2022/04/07 11:37:51;;;;;;;1.65;0.40;;;15.40;99.90;;;;;;7400452;19;20210;-80
2022/04/07 11:40:17;;;;;;;0.50;0.30;;;15.40;99.90;;;;;;7396785;19;20191;-85
2022/04/07 11:42:43;;;;;;;4.47;0.40;;;15.50;99.90;;;;;;7408761;19;20143;-86
2022/04/07 11:45:09;;;;;;;0.57;0.20;;;15.50;99.90;;;;;;7412826;19;20159;-79
2022/04/07 11:47:38;;;;;;;0.28;0.20;;;15.40;99.90;;;;;;7397139;19;20135;-77
2022/04/07 11:50:06;;;;;;;0.22;0.20;;;15.40;99.90;;;;;;7394661;19;20127;-81
2022/04/07 11:52:36;;;;;;;0.28;0.22;;;15.60;99.90;;;;;;7391043;19;20127;-83
2022/04/07 11:55:04;;;;;;;0.30;0.30;;;15.60;99.90;;;;;;7393625;19;20210;-85
2022/04/07 11:57:31;;;;;;;0.30;0.30;;;15.50;99.90;;;;;;7392573;19;20222;-84
2022/04/07 12:00:01;;;;;;;0.25;0.25;;;15.50;99.90;;;;;;7392925;19;20126;-81
2022/04/07 12:02:27;;;;;;;2.28;0.30;;;15.40;99.90;;;;;;7393269;19;20492;-82
2022/04/07 12:05:01;;;;;;;0.60;0.40;;;15.30;99.90;;;;;;7393229;19;20139;-82
2022/04/07 12:07:28;;;;;;;0.70;0.70;;;15.30;99.90;;;;;;7392181;19;20143;-83
2022/04/07 12:09:57;;;;;;;0.30;0.22;;;15.30;99.90;;;;;;7399192;19;20457;-81
2022/04/07 12:12:24;;;;;;;0.43;0.30;;;15.30;99.90;;;;;;7398881;19;20135;-80
2022/04/07 12:14:52;;;;;;;0.20;0.20;;;15.20;99.90;;;;;;7403373;19;20146;-87
2022/04/07 12:17:17;;;;;;;0.47;0.15;;;15.10;99.90;;;;;;7400536;19;20163;-80
2022/04/07 12:19:47;;;;;;;2.88;0.40;;;15.10;99.90;;;;;;7397801;19;20770;-78
2022/04/07 12:22:15;;;;;;;0.25;0.25;;;15.20;99.90;;;;;;7398906;19;20142;-84
2022/04/07 12:25:07;;;;;;;0.85;0.50;;;15.20;99.90;;;;;;7400527;19;20137;-80
2022/04/07 12:27:34;;;;;;;0.10;0.10;;;15.30;99.90;;;;;;7398624;19;20127;-82
2022/04/07 12:30:04;;;;;;;0.20;0.20;;;15.10;99.90;;;;;;7402569;19;20178;-86
2022/04/07 12:32:46;;;;;;;2.13;1.10;;;15.00;99.90;;;;;;7405571;19;20236;-86
2022/04/07 12:35:12;;;;;;;0.30;0.30;;;14.90;99.90;;;;;;7400476;19;20130;-80
2022/04/07 12:37:43;;;;;;;0.77;0.30;;;14.90;99.90;;;;;;7399096;19;20137;-79
2022/04/07 12:40:15;;;;;;;1.05;0.38;;;14.80;99.90;;;;;;7394932;19;20176;-80
2022/04/07 12:42:52;;;;;;;0.70;0.20;;;14.70;99.90;;;;;;7394619;19;20143;-83
2022/04/07 12:45:18;;;;;;;0.15;0.15;;;14.70;99.90;;;;;;7395979;19;20165;-79
2022/04/07 12:48:10;;;;;;;0.68;0.22;;;14.80;99.90;;;;;;7392997;19;20142;-82
2022/04/07 12:50:37;;;;;;;0.35;0.22;;;14.80;99.90;;;;;;7396655;19;20147;-80
2022/04/07 12:53:03;;;;;;;0.30;0.30;;;14.60;99.90;;;;;;7410052;19;20146;-81